Time;durP1;ratioP1;P1;durP2;ratioP2;P2;SDS_P1;SDS_P2;PMS_P1;PMS_P2;Temp;Humidity;BMP_temperature;BMP_pressure;BME280_temperature;BME280_humidity;BME280_pressure;Samples;Min_cycle;Max_cycle;Signal;HPM_P1;HPM_P2
2023/02/11 00:02:04;;;;;;;70.47;48.97;;;5.60;99.90;;;;;;4962719;28;20030;-84
2023/02/11 00:04:30;;;;;;;64.97;48.27;;;5.50;99.90;;;;;;4997300;28;20391;-84
2023/02/11 00:06:56;;;;;;;68.43;48.77;;;5.50;99.90;;;;;;4958044;28;20031;-84
2023/02/11 00:09:22;;;;;;;67.07;46.17;;;5.50;99.90;;;;;;4976166;28;20062;-84
2023/02/11 00:11:49;;;;;;;61.83;42.00;;;5.50;99.90;;;;;;4976689;28;20122;-84
2023/02/11 00:14:15;;;;;;;71.70;47.67;;;4.90;99.90;;;;;;4976003;28;20030;-83
2023/02/11 00:16:41;;;;;;;62.97;45.43;;;4.50;99.90;;;;;;4975812;28;20049;-83
2023/02/11 00:19:07;;;;;;;67.17;46.73;;;4.70;99.90;;;;;;4960083;28;20023;-83
2023/02/11 00:21:34;;;;;;;71.77;48.33;;;4.90;99.90;;;;;;4990297;28;20443;-84
2023/02/11 00:24:01;;;;;;;68.57;49.33;;;4.90;99.90;;;;;;4996893;28;20027;-83
2023/02/11 00:26:31;;;;;;;83.77;54.33;;;4.80;99.90;;;;;;4979475;28;20387;-84
2023/02/11 00:28:58;;;;;;;79.28;53.30;;;4.40;99.90;;;;;;4979240;28;20404;-84
2023/02/11 00:31:24;;;;;;;73.80;51.20;;;4.60;99.90;;;;;;4962725;28;20045;-84
2023/02/11 00:33:50;;;;;;;69.60;49.47;;;4.70;99.90;;;;;;4963401;28;20380;-84
2023/02/11 00:36:18;;;;;;;76.50;51.70;;;4.90;99.90;;;;;;4963259;28;20525;-84
2023/02/11 00:38:45;;;;;;;71.97;49.97;;;4.90;99.90;;;;;;4963298;28;20468;-84
2023/02/11 00:41:12;;;;;;;70.70;48.70;;;4.90;99.90;;;;;;4979138;28;20030;-84
2023/02/11 00:43:38;;;;;;;71.50;49.70;;;4.90;99.90;;;;;;4962819;28;20035;-84
2023/02/11 00:46:05;;;;;;;73.57;50.87;;;4.80;99.90;;;;;;4962547;28;20475;-84
2023/02/11 00:48:31;;;;;;;71.60;52.63;;;4.60;99.90;;;;;;4978999;28;20042;-84
2023/02/11 00:50:57;;;;;;;66.47;51.93;;;4.60;99.90;;;;;;4962745;28;20046;-84
2023/02/11 00:53:23;;;;;;;67.90;51.07;;;4.70;99.90;;;;;;4996404;28;20384;-84
2023/02/11 00:55:49;;;;;;;70.40;52.07;;;4.70;99.90;;;;;;4978725;28;20038;-84
2023/02/11 00:58:15;;;;;;;71.83;50.33;;;4.80;99.90;;;;;;4978809;28;20029;-84
2023/02/11 01:00:41;;;;;;;78.90;52.00;;;4.90;99.90;;;;;;4978367;28;20034;-84
2023/02/11 01:03:08;;;;;;;72.60;53.40;;;4.90;99.90;;;;;;4978825;28;20464;-84
2023/02/11 01:05:34;;;;;;;71.87;54.13;;;5.00;99.90;;;;;;4946606;28;20042;-84
2023/02/11 01:08:00;;;;;;;77.03;56.87;;;5.10;99.90;;;;;;4964488;28;20061;-84
2023/02/11 01:10:27;;;;;;;70.17;54.43;;;5.10;99.90;;;;;;4975895;28;20042;-84
2023/02/11 01:12:53;;;;;;;67.07;51.87;;;5.20;99.90;;;;;;4958176;28;20381;-84
2023/02/11 01:15:20;;;;;;;69.53;54.70;;;5.20;99.90;;;;;;4958834;28;20045;-84
2023/02/11 01:17:46;;;;;;;78.07;55.80;;;5.00;99.90;;;;;;4975119;28;20026;-84
2023/02/11 01:20:18;;;;;;;77.13;55.77;;;5.10;99.90;;;;;;4960962;28;20051;-84
2023/02/11 01:22:44;;;;;;;77.33;55.80;;;5.10;99.90;;;;;;4995666;28;20026;-84
2023/02/11 01:25:10;;;;;;;68.37;53.70;;;5.20;99.90;;;;;;4962504;28;20042;-84
2023/02/11 01:27:37;;;;;;;70.77;56.67;;;5.00;99.90;;;;;;4977919;28;20058;-84
2023/02/11 01:30:03;;;;;;;72.87;55.87;;;5.10;99.90;;;;;;4945755;28;20050;-83
2023/02/11 01:32:29;;;;;;;78.07;59.60;;;5.20;99.90;;;;;;4962228;28;20031;-83
2023/02/11 01:34:55;;;;;;;75.17;58.07;;;5.20;99.90;;;;;;4978339;28;20041;-83
2023/02/11 01:37:21;;;;;;;70.53;57.03;;;5.30;99.90;;;;;;4978127;28;20041;-83
2023/02/11 01:39:47;;;;;;;73.50;55.90;;;5.30;99.90;;;;;;4978158;28;20038;-83
2023/02/11 01:42:18;;;;;;;69.67;55.13;;;5.30;99.90;;;;;;4977937;28;20478;-83
2023/02/11 01:44:44;;;;;;;67.72;54.70;;;5.30;99.90;;;;;;4962115;28;20022;-82
2023/02/11 01:47:10;;;;;;;71.83;55.63;;;5.20;99.90;;;;;;4995077;28;20031;-83
2023/02/11 01:49:43;;;;;;;77.30;58.53;;;5.20;99.90;;;;;;4977699;28;20041;-83
2023/02/11 01:52:21;;;;;;;75.67;59.17;;;5.20;99.90;;;;;;4945907;28;20034;-83
2023/02/11 01:57:36;;;;;;;71.43;55.87;;;5.20;99.90;;;;;;4969203;28;20045;-83
2023/02/11 02:00:10;;;;;;;74.50;58.80;;;5.20;99.90;;;;;;4961968;28;20037;-83
2023/02/11 02:02:53;;;;;;;72.43;55.63;;;5.20;99.90;;;;;;4961216;28;20035;-83
2023/02/11 02:05:23;;;;;;;71.73;53.80;;;5.10;99.90;;;;;;4963751;28;20026;-83
2023/02/11 02:07:53;;;;;;;69.75;54.00;;;5.10;99.90;;;;;;4961745;28;20057;-83
2023/02/11 02:10:21;;;;;;;71.70;57.10;;;5.10;99.90;;;;;;4993308;28;20039;-83
2023/02/11 02:12:47;;;;;;;71.83;56.50;;;5.00;99.90;;;;;;4977532;28;20027;-83
2023/02/11 02:15:27;;;;;;;73.10;57.03;;;5.00;99.90;;;;;;4994518;28;20380;-83
2023/02/11 02:17:57;;;;;;;71.23;56.60;;;5.10;99.90;;;;;;4976678;28;20035;-83
2023/02/11 02:20:45;;;;;;;72.35;48.65;;;4.90;99.90;;;;;;4977043;28;20049;-83
2023/02/11 02:23:44;;;;;;;76.60;53.67;;;4.70;99.90;;;;;;4960276;28;20034;-83
2023/02/11 02:26:16;;;;;;;69.40;49.43;;;4.40;99.90;;;;;;4953263;29;20539;-83
2023/02/11 02:29:17;;;;;;;63.23;47.23;;;4.50;99.90;;;;;;4953700;29;20547;-83
2023/02/11 02:32:16;;;;;;;;;;;4.60;99.90;;;;;;4939031;28;20050;-83
2023/02/11 02:34:49;;;;;;;67.37;49.10;;;4.70;99.90;;;;;;4915585;29;20365;-84
2023/02/11 02:37:40;;;;;;;62.70;45.67;;;4.70;99.90;;;;;;4884432;29;20052;-84
2023/02/11 02:40:11;;;;;;;;;;;4.70;99.90;;;;;;4886883;29;20040;-83
2023/02/11 02:42:37;;;;;;;59.67;44.28;;;4.60;99.90;;;;;;4899432;29;19929;-83
2023/02/11 02:45:03;;;;;;;62.77;46.23;;;4.70;99.90;;;;;;4898511;29;20036;-82
2023/02/11 02:47:29;;;;;;;67.50;47.53;;;4.60;99.90;;;;;;4899483;29;20028;-83
2023/02/11 02:49:55;;;;;;;66.53;50.97;;;4.50;99.90;;;;;;4915092;29;20050;-83
2023/02/11 02:52:28;;;;;;;63.27;47.73;;;4.50;99.90;;;;;;4883301;29;20032;-83
2023/02/11 02:55:21;;;;;;;58.30;45.37;;;4.50;99.90;;;;;;4898948;29;20043;-83
2023/02/11 02:58:02;;;;;;;65.13;49.47;;;4.60;99.90;;;;;;4914631;29;20040;-83
2023/02/11 03:00:43;;;;;;;56.95;46.08;;;4.60;99.90;;;;;;4903289;29;20033;-83
2023/02/11 03:03:33;;;;;;;64.50;49.83;;;4.50;99.90;;;;;;4896104;29;20454;-83
2023/02/11 03:06:13;;;;;;;60.53;45.33;;;4.50;99.90;;;;;;4888544;29;20367;-84
2023/02/11 03:08:48;;;;;;;63.20;47.00;;;4.50;99.90;;;;;;4912739;29;20032;-83
2023/02/11 03:11:17;;;;;;;63.27;48.57;;;4.50;99.90;;;;;;4940170;28;20051;-83
2023/02/11 03:13:43;;;;;;;65.47;51.07;;;4.50;99.90;;;;;;4955344;28;20038;-83
2023/02/11 03:16:12;;;;;;;64.27;49.77;;;4.40;99.90;;;;;;4951512;28;20028;-83
2023/02/11 03:18:40;;;;;;;61.83;47.03;;;4.50;99.90;;;;;;4951900;29;20030;-84
2023/02/11 03:21:06;;;;;;;65.00;49.67;;;4.40;99.90;;;;;;4951915;29;20043;-84
2023/02/11 03:23:39;;;;;;;64.37;49.50;;;4.30;99.90;;;;;;4930496;29;20039;-83
2023/02/11 03:26:19;;;;;;;64.97;49.50;;;4.40;99.90;;;;;;4932787;29;20381;-83
2023/02/11 03:29:13;;;;;;;61.58;49.58;;;4.30;99.90;;;;;;4917966;29;20039;-83
2023/02/11 03:32:14;;;;;;;69.23;50.03;;;4.30;99.90;;;;;;4922696;29;20047;-84
2023/02/11 03:34:48;;;;;;;64.20;49.93;;;4.30;99.90;;;;;;4916198;29;20036;-83
2023/02/11 03:37:31;;;;;;;64.33;46.80;;;4.20;99.90;;;;;;4919676;29;20400;-83
2023/02/11 03:40:00;;;;;;;63.50;46.80;;;4.30;99.90;;;;;;4950424;28;20039;-82
2023/02/11 03:42:30;;;;;;;62.60;45.60;;;4.30;99.90;;;;;;4934302;29;20035;-82
2023/02/11 03:45:05;;;;;;;57.53;42.58;;;4.20;99.90;;;;;;4934358;29;20032;-82
2023/02/11 03:47:31;;;;;;;63.20;43.47;;;4.20;99.90;;;;;;4933589;29;20040;-83
2023/02/11 03:49:57;;;;;;;65.20;44.10;;;4.10;99.90;;;;;;4934121;29;20404;-83
2023/02/11 03:52:25;;;;;;;61.37;46.23;;;4.00;99.90;;;;;;4949774;29;20046;-82
2023/02/11 03:54:54;;;;;;;68.37;45.37;;;4.00;99.90;;;;;;4917996;29;20039;-83
2023/02/11 03:57:20;;;;;;;66.57;47.33;;;4.00;99.90;;;;;;4934284;29;20023;-82
2023/02/11 03:59:53;;;;;;;72.00;48.73;;;4.00;99.90;;;;;;4933696;29;20040;-83
2023/02/11 04:02:19;;;;;;;66.40;48.10;;;4.00;99.90;;;;;;4933579;28;20076;-83
2023/02/11 04:04:45;;;;;;;60.53;43.57;;;4.00;99.90;;;;;;4934013;29;20031;-82
2023/02/11 04:07:11;;;;;;;60.83;46.87;;;4.00;99.90;;;;;;4933883;29;20040;-82
2023/02/11 04:09:37;;;;;;;66.73;49.77;;;4.10;99.90;;;;;;4935543;29;20457;-82
2023/02/11 04:12:04;;;;;;;69.57;51.07;;;4.00;99.90;;;;;;4949817;29;20065;-82
2023/02/11 04:14:30;;;;;;;72.00;49.63;;;4.00;99.90;;;;;;4950061;28;20032;-82
2023/02/11 04:16:56;;;;;;;70.70;49.07;;;4.00;99.90;;;;;;4933616;29;20043;-82
2023/02/11 04:19:22;;;;;;;71.77;50.10;;;4.00;99.90;;;;;;4941974;28;20038;-82
2023/02/11 04:21:48;;;;;;;66.97;49.23;;;4.00;99.90;;;;;;4988180;28;20030;-82
2023/02/11 04:24:14;;;;;;;68.63;47.93;;;3.90;99.90;;;;;;4975285;28;20038;-82
2023/02/11 04:26:40;;;;;;;70.67;48.37;;;3.90;99.90;;;;;;4992948;28;20031;-82
2023/02/11 04:29:06;;;;;;;66.77;48.77;;;3.90;99.90;;;;;;4992883;28;20026;-82
2023/02/11 04:31:32;;;;;;;67.37;47.13;;;3.90;99.90;;;;;;4992275;28;20053;-82
2023/02/11 04:33:58;;;;;;;67.13;48.93;;;3.90;99.90;;;;;;4992880;28;20034;-82
2023/02/11 04:36:25;;;;;;;64.47;45.10;;;3.90;99.90;;;;;;4992517;28;20045;-82
2023/02/11 04:38:51;;;;;;;61.43;45.40;;;3.90;99.90;;;;;;4975453;28;20034;-82
2023/02/11 04:41:17;;;;;;;67.43;46.10;;;3.90;99.90;;;;;;4943429;28;20431;-82
2023/02/11 04:43:43;;;;;;;62.07;44.53;;;3.70;99.90;;;;;;4992595;28;20031;-82
2023/02/11 04:46:09;;;;;;;62.17;45.80;;;3.70;99.90;;;;;;4976210;28;20396;-83
2023/02/11 04:48:35;;;;;;;68.07;46.27;;;3.70;99.90;;;;;;4978981;28;20034;-83
2023/02/11 04:51:01;;;;;;;64.40;44.97;;;3.60;99.90;;;;;;4995928;28;20404;-83
2023/02/11 04:53:27;;;;;;;64.50;44.73;;;3.60;99.90;;;;;;4979004;28;20049;-83
2023/02/11 04:55:53;;;;;;;65.83;45.73;;;3.70;99.90;;;;;;4979059;28;20039;-83
2023/02/11 04:58:19;;;;;;;63.03;46.77;;;3.70;99.90;;;;;;4978843;28;20045;-83
2023/02/11 05:00:46;;;;;;;66.87;45.97;;;3.70;99.90;;;;;;4962183;28;20034;-83
2023/02/11 05:03:12;;;;;;;71.73;47.67;;;3.70;99.90;;;;;;4962818;28;20026;-83
2023/02/11 05:05:41;;;;;;;62.37;45.23;;;3.70;99.90;;;;;;4995837;28;20467;-83
2023/02/11 05:08:08;;;;;;;64.47;45.20;;;3.70;99.90;;;;;;4948044;28;20031;-83
2023/02/11 05:10:34;;;;;;;66.77;45.63;;;3.70;99.90;;;;;;4975268;28;20099;-83
2023/02/11 05:13:00;;;;;;;66.20;47.77;;;3.60;99.90;;;;;;4975389;28;20468;-83
2023/02/11 05:15:26;;;;;;;71.77;47.87;;;3.60;99.90;;;;;;4974792;28;20031;-83
2023/02/11 05:17:53;;;;;;;65.57;45.43;;;3.50;99.90;;;;;;4976409;28;20369;-83
2023/02/11 05:20:19;;;;;;;73.97;49.17;;;3.50;99.90;;;;;;4977648;28;20444;-83
2023/02/11 05:22:45;;;;;;;72.73;47.93;;;3.50;99.90;;;;;;4978459;28;20368;-83
2023/02/11 05:25:11;;;;;;;78.73;48.27;;;3.60;99.90;;;;;;4961905;28;20463;-83
2023/02/11 05:27:37;;;;;;;68.50;45.70;;;3.60;99.90;;;;;;4962271;28;20026;-83
2023/02/11 05:30:04;;;;;;;66.30;46.47;;;3.60;99.90;;;;;;4995122;28;20035;-84
2023/02/11 05:32:30;;;;;;;64.37;46.73;;;3.60;99.90;;;;;;4978445;28;20030;-83
2023/02/11 05:34:57;;;;;;;65.80;46.13;;;3.60;99.90;;;;;;4961893;28;20038;-83
2023/02/11 05:37:23;;;;;;;68.43;48.10;;;3.60;99.90;;;;;;4962348;28;20049;-83
2023/02/11 05:39:49;;;;;;;69.17;48.17;;;3.60;99.90;;;;;;4978306;28;20049;-83
2023/02/11 05:42:15;;;;;;;63.53;46.63;;;3.50;99.90;;;;;;4995425;28;20045;-83
2023/02/11 05:44:41;;;;;;;64.37;47.27;;;3.60;99.90;;;;;;4995467;28;20026;-83
2023/02/11 05:47:07;;;;;;;61.53;46.20;;;3.50;99.90;;;;;;4961273;28;20038;-83
2023/02/11 05:49:34;;;;;;;65.90;45.97;;;3.50;99.90;;;;;;4977491;28;20046;-83
2023/02/11 05:52:00;;;;;;;71.37;48.20;;;3.50;99.90;;;;;;4978024;28;20392;-83
2023/02/11 05:54:26;;;;;;;67.17;47.77;;;3.50;99.90;;;;;;4961841;28;20030;-83
2023/02/11 05:56:52;;;;;;;63.97;45.70;;;3.50;99.90;;;;;;4977177;28;20396;-83
2023/02/11 05:59:18;;;;;;;58.00;44.07;;;3.50;99.90;;;;;;4977143;28;20034;-83
2023/02/11 06:01:44;;;;;;;64.87;45.07;;;3.50;99.90;;;;;;4977187;28;20057;-83
2023/02/11 06:04:11;;;;;;;64.60;45.40;;;3.50;99.90;;;;;;4977478;28;20037;-83
2023/02/11 06:06:37;;;;;;;65.10;44.87;;;3.50;99.90;;;;;;4958517;28;20027;-83
2023/02/11 06:09:03;;;;;;;66.33;45.03;;;3.50;99.90;;;;;;4974405;28;20039;-83
2023/02/11 06:11:29;;;;;;;72.23;48.00;;;3.60;99.90;;;;;;4975382;28;20507;-83
2023/02/11 06:13:55;;;;;;;63.67;43.33;;;3.60;99.90;;;;;;4975410;28;20035;-82
2023/02/11 06:16:21;;;;;;;68.07;46.30;;;3.50;99.90;;;;;;4974990;28;20408;-83
2023/02/11 06:18:47;;;;;;;67.20;46.77;;;3.50;99.90;;;;;;4973655;28;20039;-83
2023/02/11 06:21:13;;;;;;;70.23;47.60;;;3.40;99.90;;;;;;4964649;28;20043;-82
2023/02/11 06:23:39;;;;;;;59.80;42.40;;;3.40;99.90;;;;;;4975232;28;20057;-83
2023/02/11 06:26:06;;;;;;;63.10;44.17;;;3.40;99.90;;;;;;4957491;28;20035;-82
2023/02/11 06:28:34;;;;;;;67.93;46.83;;;3.20;99.90;;;;;;4974018;28;20480;-83
2023/02/11 06:31:05;;;;;;;73.40;46.57;;;3.00;99.90;;;;;;4973360;28;20043;-83
2023/02/11 06:33:31;;;;;;;61.88;44.60;;;3.00;99.90;;;;;;4972970;28;20043;-83
2023/02/11 06:35:58;;;;;;;69.03;44.80;;;3.00;99.90;;;;;;4973926;28;20031;-82
2023/02/11 06:38:24;;;;;;;69.57;47.07;;;3.10;99.90;;;;;;4973529;28;20027;-83
2023/02/11 06:40:50;;;;;;;67.97;45.37;;;3.10;99.90;;;;;;4974801;28;20023;-83
2023/02/11 06:43:16;;;;;;;68.20;46.73;;;3.10;99.90;;;;;;4989429;28;20042;-83
2023/02/11 06:45:42;;;;;;;70.80;47.83;;;2.90;99.90;;;;;;4973179;28;20034;-83
2023/02/11 06:48:08;;;;;;;71.47;48.60;;;2.80;99.90;;;;;;4974831;28;20046;-82
2023/02/11 06:50:34;;;;;;;71.60;47.60;;;2.70;99.90;;;;;;4974652;28;20061;-82
2023/02/11 06:53:00;;;;;;;69.67;45.60;;;2.70;99.90;;;;;;4973551;28;20031;-82
2023/02/11 06:55:26;;;;;;;72.20;47.77;;;2.80;99.90;;;;;;4973445;28;20034;-83
2023/02/11 06:57:53;;;;;;;72.50;48.50;;;3.00;99.90;;;;;;4974699;28;20046;-83
2023/02/11 07:00:19;;;;;;;71.50;47.30;;;3.00;99.90;;;;;;4972328;28;20412;-83
2023/02/11 07:02:45;;;;;;;68.30;47.07;;;3.10;99.90;;;;;;4973236;28;20019;-82
2023/02/11 07:05:11;;;;;;;72.83;46.47;;;3.00;99.90;;;;;;4974638;28;20038;-83
2023/02/11 07:07:37;;;;;;;61.30;43.83;;;2.80;99.90;;;;;;4962263;28;20035;-83
2023/02/11 07:10:04;;;;;;;68.77;48.07;;;2.90;99.90;;;;;;4954684;28;20038;-83
2023/02/11 07:12:31;;;;;;;67.87;47.40;;;3.00;99.90;;;;;;4953216;28;20054;-83
2023/02/11 07:14:57;;;;;;;65.27;46.27;;;2.80;99.90;;;;;;4937496;29;20113;-83
2023/02/11 07:17:23;;;;;;;71.10;47.77;;;2.60;99.90;;;;;;4954540;28;20047;-83
2023/02/11 07:19:49;;;;;;;68.73;48.67;;;2.80;99.90;;;;;;4953819;29;20490;-83
2023/02/11 07:22:15;;;;;;;72.90;50.13;;;2.80;99.90;;;;;;4973118;28;20039;-83
2023/02/11 07:24:41;;;;;;;84.83;51.57;;;2.70;99.90;;;;;;4974170;28;20026;-82
2023/02/11 07:27:08;;;;;;;73.77;49.37;;;2.80;99.90;;;;;;4972979;28;20364;-83
2023/02/11 07:29:34;;;;;;;74.57;49.17;;;2.80;99.90;;;;;;4988104;28;20046;-83
2023/02/11 07:32:00;;;;;;;67.47;47.07;;;3.00;99.90;;;;;;4973844;28;20431;-83
2023/02/11 07:34:26;;;;;;;68.93;48.70;;;3.00;99.90;;;;;;4988591;28;20042;-82
2023/02/11 07:36:52;;;;;;;64.20;47.43;;;3.00;99.90;;;;;;4974164;28;20388;-83
2023/02/11 07:39:20;;;;;;;68.47;46.33;;;2.90;99.90;;;;;;4972904;28;20031;-83
2023/02/11 07:41:48;;;;;;;74.40;47.50;;;2.90;99.90;;;;;;4972281;28;20043;-82
2023/02/11 07:44:14;;;;;;;73.57;48.97;;;2.80;99.90;;;;;;4973483;28;20416;-83
2023/02/11 07:46:43;;;;;;;75.13;48.13;;;2.60;99.90;;;;;;4972295;28;20035;-83
2023/02/11 07:49:09;;;;;;;72.47;49.17;;;2.70;99.90;;;;;;4973714;28;20038;-83
2023/02/11 07:51:35;;;;;;;64.97;47.30;;;2.80;99.90;;;;;;4972540;28;20388;-83
2023/02/11 07:54:02;;;;;;;67.00;46.73;;;2.90;99.90;;;;;;4972900;28;20042;-83
2023/02/11 07:56:28;;;;;;;69.57;47.23;;;2.80;99.90;;;;;;4956306;28;20050;-83
2023/02/11 07:58:55;;;;;;;69.63;46.67;;;2.80;99.90;;;;;;4973273;28;20416;-83
2023/02/11 08:01:23;;;;;;;68.70;45.73;;;2.90;99.90;;;;;;4972880;28;20035;-82
2023/02/11 08:03:50;;;;;;;73.00;46.50;;;2.90;99.90;;;;;;4972514;28;20034;-83
2023/02/11 08:06:17;;;;;;;67.50;46.70;;;2.80;99.90;;;;;;4973386;28;20035;-83
2023/02/11 08:08:43;;;;;;;71.33;46.83;;;2.80;99.90;;;;;;4954361;29;20393;-83
2023/02/11 08:11:24;;;;;;;66.60;45.33;;;2.70;99.90;;;;;;4953067;29;20040;-83
2023/02/11 08:13:50;;;;;;;67.83;47.20;;;2.80;99.90;;;;;;4936768;29;20046;-83
2023/02/11 08:16:33;;;;;;;66.27;45.43;;;2.90;99.90;;;;;;4952633;28;20042;-83
2023/02/11 08:19:01;;;;;;;70.33;47.40;;;3.10;99.90;;;;;;4954515;28;20035;-83
2023/02/11 08:21:27;;;;;;;66.07;46.90;;;3.30;99.90;;;;;;4969968;28;20415;-84
2023/02/11 08:23:53;;;;;;;72.60;53.40;;;3.50;99.90;;;;;;4963270;28;20043;-83
2023/02/11 08:26:24;;;;;;;64.47;44.63;;;3.70;99.90;;;;;;4947652;28;20523;-83
2023/02/11 08:28:51;;;;;;;60.58;45.63;;;4.00;99.90;;;;;;4963531;28;20026;-83
2023/02/11 08:31:22;;;;;;;60.53;43.27;;;3.90;99.90;;;;;;4979086;28;20046;-83
2023/02/11 08:33:48;;;;;;;56.72;41.17;;;4.00;99.90;;;;;;4947626;28;20488;-83
2023/02/11 08:36:15;;;;;;;62.80;45.23;;;3.80;99.90;;;;;;4963275;28;20491;-83
2023/02/11 08:38:41;;;;;;;64.17;46.20;;;3.60;99.90;;;;;;4996622;28;20033;-83
2023/02/11 08:41:07;;;;;;;54.97;40.70;;;3.60;99.90;;;;;;4963347;28;20038;-83
2023/02/11 08:43:34;;;;;;;60.87;41.97;;;3.60;99.90;;;;;;4996162;28;20387;-84
2023/02/11 08:46:00;;;;;;;58.20;43.67;;;3.60;99.90;;;;;;4962442;28;20034;-83
2023/02/11 08:48:27;;;;;;;57.53;43.77;;;3.80;99.90;;;;;;4996675;28;20042;-83
2023/02/11 08:50:56;;;;;;;59.27;43.90;;;4.00;99.90;;;;;;4963195;28;20030;-84
2023/02/11 08:53:23;;;;;;;53.40;39.80;;;4.30;99.90;;;;;;4979074;28;20030;-83
2023/02/11 08:55:52;;;;;;;54.20;41.43;;;4.20;99.90;;;;;;4979018;28;20479;-83
2023/02/11 08:58:19;;;;;;;53.00;40.90;;;4.20;99.90;;;;;;4979250;28;20035;-83
2023/02/11 09:00:46;;;;;;;50.50;35.63;;;4.20;99.90;;;;;;4981170;28;20030;-83
2023/02/11 09:03:13;;;;;;;53.23;37.43;;;4.30;99.90;;;;;;4962476;28;20042;-83
2023/02/11 09:05:46;;;;;;;53.20;41.57;;;4.30;99.90;;;;;;4996064;28;20460;-83
2023/02/11 09:08:12;;;;;;;52.40;40.90;;;4.40;99.90;;;;;;4947436;28;20038;-83
2023/02/11 09:10:38;;;;;;;52.50;37.73;;;4.70;99.90;;;;;;4959366;28;20034;-83
2023/02/11 09:13:05;;;;;;;54.07;41.07;;;4.90;99.90;;;;;;4958818;28;20396;-83
2023/02/11 09:15:31;;;;;;;47.60;37.33;;;5.00;99.90;;;;;;4974890;28;20038;-83
2023/02/11 09:17:57;;;;;;;48.67;40.50;;;5.00;99.90;;;;;;4959249;28;20038;-83
2023/02/11 09:20:25;;;;;;;47.57;37.67;;;5.00;99.90;;;;;;4942892;28;20429;-83
2023/02/11 09:22:51;;;;;;;50.17;37.67;;;5.20;99.90;;;;;;4975358;28;20039;-83
2023/02/11 09:25:17;;;;;;;53.00;37.80;;;5.30;99.90;;;;;;4958838;28;20043;-83
2023/02/11 09:27:44;;;;;;;49.00;37.60;;;5.40;99.90;;;;;;4959080;28;20452;-83
2023/02/11 09:30:10;;;;;;;47.33;38.67;;;5.60;99.90;;;;;;4974812;28;20030;-83
2023/02/11 09:32:36;;;;;;;45.93;37.83;;;5.80;99.90;;;;;;4958667;28;20062;-83
2023/02/11 09:35:03;;;;;;;46.53;36.83;;;5.80;99.90;;;;;;4975090;28;20042;-83
2023/02/11 09:37:29;;;;;;;50.23;37.10;;;6.00;99.90;;;;;;4974878;28;20041;-83
2023/02/11 09:39:55;;;;;;;48.30;34.97;;;6.10;99.90;;;;;;4975801;28;20034;-83
2023/02/11 09:42:49;;;;;;;46.83;34.37;;;6.30;99.90;;;;;;4976081;28;20035;-83
2023/02/11 09:45:19;;;;;;;43.88;33.88;;;6.30;99.90;;;;;;4958485;28;20399;-83
2023/02/11 09:47:56;;;;;;;47.93;35.00;;;6.50;99.90;;;;;;4958469;28;20050;-83
2023/02/11 09:50:29;;;;;;;42.00;33.07;;;6.50;99.90;;;;;;4958684;28;20033;-83
2023/02/11 09:53:02;;;;;;;29.43;24.33;;;6.70;99.90;;;;;;4958348;28;20054;-83
2023/02/11 09:55:41;;;;;;;34.22;26.73;;;6.80;99.90;;;;;;4958287;28;20484;-83
2023/02/11 09:58:30;;;;;;;30.88;25.55;;;6.80;99.90;;;;;;4958190;28;20038;-83
2023/02/11 10:01:08;;;;;;;34.00;26.63;;;6.80;99.90;;;;;;4957356;28;20075;-83
2023/02/11 10:03:57;;;;;;;36.25;29.52;;;6.80;99.90;;;;;;4975559;28;20035;-83
2023/02/11 10:06:44;;;;;;;35.20;26.70;;;7.00;99.90;;;;;;4970057;28;20488;-83
2023/02/11 10:09:16;;;;;;;33.78;26.58;;;7.10;99.90;;;;;;4974081;28;20026;-83
2023/02/11 10:11:45;;;;;;;36.50;29.45;;;7.10;99.90;;;;;;4975426;28;20042;-83
2023/02/11 10:14:14;;;;;;;38.72;30.13;;;7.20;99.90;;;;;;4975412;28;20042;-83
2023/02/11 10:17:05;;;;;;;41.38;33.38;;;7.30;99.90;;;;;;4973556;28;20035;-84
2023/02/11 10:19:34;;;;;;;40.65;31.50;;;7.40;99.90;;;;;;4974010;28;20039;-83
2023/02/11 10:22:09;;;;;;;29.90;25.10;;;7.50;99.90;;;;;;4990446;28;20488;-84
2023/02/11 10:24:35;;;;;;;45.60;32.05;;;7.50;99.90;;;;;;4977570;28;20033;-84
2023/02/11 10:27:07;;;;;;;43.65;31.08;;;7.70;99.90;;;;;;4977345;28;20049;-84
2023/02/11 10:29:44;;;;;;;39.40;30.63;;;7.80;99.90;;;;;;4961799;28;20026;-84
2023/02/11 10:32:58;;;;;;;39.60;29.90;;;7.80;99.90;;;;;;4961033;28;20046;-84
2023/02/11 10:35:26;;;;;;;37.15;29.27;;;7.90;99.90;;;;;;4953817;29;20050;-84
2023/02/11 10:37:53;;;;;;;34.28;28.38;;;8.10;99.90;;;;;;4937667;29;20063;-84
2023/02/11 10:40:27;;;;;;;35.20;27.70;;;8.00;99.90;;;;;;4937583;29;20061;-84
2023/02/11 10:42:59;;;;;;;32.03;26.77;;;8.10;99.90;;;;;;4937886;28;20035;-84
2023/02/11 10:45:32;;;;;;;37.38;27.73;;;8.10;99.90;;;;;;4936982;28;20038;-84
2023/02/11 10:48:00;;;;;;;23.92;21.38;;;8.20;99.90;;;;;;4922192;29;20525;-84
2023/02/11 10:50:28;;;;;;;36.40;27.88;;;8.10;99.90;;;;;;4937572;29;20042;-84
2023/02/11 10:53:19;;;;;;;35.78;26.33;;;8.10;99.90;;;;;;4936847;29;20051;-84
2023/02/11 10:55:52;;;;;;;29.98;26.25;;;8.20;99.90;;;;;;4937844;29;20512;-84
2023/02/11 10:58:24;;;;;;;31.50;25.85;;;8.30;99.90;;;;;;4937146;28;20040;-84
2023/02/11 11:00:51;;;;;;;18.17;16.67;;;8.30;99.90;;;;;;4936740;28;20031;-84
2023/02/11 11:03:19;;;;;;;30.05;25.95;;;8.30;99.90;;;;;;4921601;29;20039;-84
2023/02/11 11:06:07;;;;;;;31.75;26.25;;;8.40;99.90;;;;;;4921306;29;20444;-83
2023/02/11 11:08:55;;;;;;;32.97;25.98;;;8.60;99.90;;;;;;4917987;29;20044;-84
2023/02/11 11:11:22;;;;;;;34.22;26.40;;;8.70;99.90;;;;;;4929126;29;20038;-84
2023/02/11 11:13:51;;;;;;;28.65;24.95;;;8.90;99.90;;;;;;4954197;29;20491;-84
2023/02/11 11:16:21;;;;;;;26.50;22.75;;;9.00;99.90;;;;;;4954808;28;20400;-84
2023/02/11 11:18:48;;;;;;;28.77;23.95;;;9.00;99.90;;;;;;4922130;29;20400;-84
2023/02/11 11:21:20;;;;;;;30.52;26.02;;;9.10;99.90;;;;;;4958367;28;20053;-84
2023/02/11 11:23:50;;;;;;;27.40;24.08;;;9.20;99.90;;;;;;4944342;28;20053;-84
2023/02/11 11:26:16;;;;;;;26.63;23.83;;;9.20;99.90;;;;;;4959571;28;20035;-84
2023/02/11 11:28:45;;;;;;;28.27;25.45;;;9.20;99.90;;;;;;4944196;28;20046;-84
2023/02/11 11:31:13;;;;;;;27.45;24.67;;;9.30;99.90;;;;;;4991081;28;20360;-84
2023/02/11 11:33:40;;;;;;;25.13;22.65;;;9.40;99.90;;;;;;4960065;28;20030;-84
2023/02/11 11:36:09;;;;;;;26.52;23.73;;;9.50;99.90;;;;;;4943678;28;20472;-84
2023/02/11 11:38:42;;;;;;;24.60;21.70;;;9.60;99.90;;;;;;4944190;28;20049;-84
2023/02/11 11:41:15;;;;;;;26.48;23.77;;;9.60;99.90;;;;;;4976138;28;20029;-84
2023/02/11 11:44:10;;;;;;;24.83;22.33;;;9.60;99.90;;;;;;4976008;28;20018;-83
2023/02/11 11:46:39;;;;;;;24.42;21.90;;;9.70;99.90;;;;;;4978279;28;20053;-84
2023/02/11 11:49:28;;;;;;;29.10;23.55;;;9.80;99.90;;;;;;4959915;28;20030;-84
2023/02/11 11:52:17;;;;;;;28.30;24.67;;;9.90;99.90;;;;;;4953179;28;20049;-84
2023/02/11 11:54:45;;;;;;;26.10;21.77;;;10.10;99.90;;;;;;4975965;28;20033;-84
2023/02/11 11:57:15;;;;;;;27.52;24.70;;;10.00;99.90;;;;;;4960011;28;20026;-83
2023/02/11 11:59:42;;;;;;;25.65;22.95;;;10.00;99.90;;;;;;4960270;28;20062;-83
2023/02/11 12:02:23;;;;;;;27.50;24.88;;;10.20;99.90;;;;;;4992496;28;20042;-83
2023/02/11 12:04:58;;;;;;;29.10;26.13;;;10.30;99.90;;;;;;4976366;28;20030;-84
2023/02/11 12:07:53;;;;;;;25.15;22.55;;;10.40;99.90;;;;;;4966633;28;20508;-84
2023/02/11 12:10:31;;;;;;;30.42;27.17;;;10.40;99.90;;;;;;4940058;28;20515;-84
2023/02/11 12:13:18;;;;;;;30.98;27.48;;;10.40;99.90;;;;;;4972467;28;20507;-84
2023/02/11 12:16:06;;;;;;;32.83;27.52;;;10.60;99.90;;;;;;4972024;28;20031;-84
2023/02/11 12:18:54;;;;;;;29.30;26.40;;;10.90;99.90;;;;;;4972386;28;20404;-84
2023/02/11 12:21:22;;;;;;;30.75;27.60;;;10.70;99.90;;;;;;4984285;28;20053;-84
2023/02/11 12:24:06;;;;;;;30.48;27.38;;;10.70;99.90;;;;;;4992974;28;20034;-84
2023/02/11 12:26:53;;;;;;;25.85;23.38;;;10.70;99.90;;;;;;4960983;28;20035;-83
2023/02/11 12:29:28;;;;;;;29.48;26.50;;;10.70;99.90;;;;;;4975634;28;20040;-84
2023/02/11 12:32:00;;;;;;;21.98;20.05;;;10.80;99.90;;;;;;4992775;28;20038;-83
2023/02/11 12:34:35;;;;;;;24.75;22.25;;;10.90;99.90;;;;;;4992375;28;20037;-83
2023/02/11 12:37:29;;;;;;;27.10;24.30;;;10.80;99.90;;;;;;4992804;28;20027;-83
2023/02/11 12:40:00;;;;;;;26.80;23.80;;;10.90;99.90;;;;;;4992792;28;20042;-84
2023/02/11 12:43:15;;;;;;;26.80;24.15;;;10.80;99.90;;;;;;4975732;28;20030;-84
2023/02/11 12:45:48;;;;;;;25.58;23.13;;;11.00;99.90;;;;;;4963941;28;20026;-84
2023/02/11 12:48:21;;;;;;;23.30;21.10;;;11.00;99.90;;;;;;4943451;28;20041;-84
2023/02/11 12:51:03;;;;;;;22.48;20.15;;;11.10;99.90;;;;;;4992079;28;20057;-83
2023/02/11 12:53:48;;;;;;;;;;;11.10;99.90;;;;;;4959715;28;20043;-83
2023/02/11 12:56:18;;;;;;;20.50;18.75;;;11.20;99.90;;;;;;4992764;28;19912;-83
2023/02/11 12:58:44;;;;;;;19.88;18.25;;;11.30;99.90;;;;;;4959730;28;20124;-83